Map

Track Data

SID SEASON NUMBER BASIN SUBBASIN NAME ISO_TIME NATURE LAT LON WMO_WIND WMO_PRES WMO_AGENCY TRACK_TYPE DIST2LAND LANDFALL IFLAG USA_AGENCY USA_ATCF_ID USA_LAT USA_LON USA_RECORD USA_STATUS USA_WIND USA_PRES USA_SSHS USA_R34_NE USA_R34_SE USA_R34_SW USA_R34_NW USA_R50_NE USA_R50_SE USA_R50_SW USA_R50_NW USA_R64_NE USA_R64_SE USA_R64_SW USA_R64_NW USA_POCI USA_ROCI USA_RMW USA_EYE TOKYO_LAT TOKYO_LON TOKYO_GRADE TOKYO_WIND TOKYO_PRES TOKYO_R50_DIR TOKYO_R50_LONG TOKYO_R50_SHORT TOKYO_R30_DIR TOKYO_R30_LONG TOKYO_R30_SHORT TOKYO_LAND CMA_LAT CMA_LON CMA_CAT CMA_WIND CMA_PRES HKO_LAT HKO_LON HKO_CAT HKO_WIND HKO_PRES NEWDELHI_LAT NEWDELHI_LON NEWDELHI_GRADE NEWDELHI_WIND NEWDELHI_PRES NEWDELHI_CI NEWDELHI_DP NEWDELHI_POCI REUNION_LAT REUNION_LON REUNION_TYPE REUNION_WIND REUNION_PRES REUNION_TNUM REUNION_CI REUNION_RMW REUNION_R34_NE REUNION_R34_SE REUNION_R34_SW REUNION_R34_NW REUNION_R50_NE REUNION_R50_SE REUNION_R50_SW REUNION_R50_NW REUNION_R64_NE REUNION_R64_SE REUNION_R64_SW REUNION_R64_NW BOM_LAT BOM_LON BOM_TYPE BOM_WIND BOM_PRES BOM_TNUM BOM_CI BOM_RMW BOM_R34_NE BOM_R34_SE BOM_R34_SW BOM_R34_NW BOM_R50_NE BOM_R50_SE BOM_R50_SW BOM_R50_NW BOM_R64_NE BOM_R64_SE BOM_R64_SW BOM_R64_NW BOM_ROCI BOM_POCI BOM_EYE BOM_POS_METHOD BOM_PRES_METHOD NADI_LAT NADI_LON NADI_CAT NADI_WIND NADI_PRES WELLINGTON_LAT WELLINGTON_LON WELLINGTON_WIND WELLINGTON_PRES DS824_LAT DS824_LON DS824_STAGE DS824_WIND DS824_PRES TD9636_LAT TD9636_LON TD9636_STAGE TD9636_WIND TD9636_PRES TD9635_LAT TD9635_LON TD9635_WIND TD9635_PRES TD9635_ROCI NEUMANN_LAT NEUMANN_LON NEUMANN_CLASS NEUMANN_WIND NEUMANN_PRES MLC_LAT MLC_LON MLC_CLASS MLC_WIND MLC_PRES USA_GUST BOM_GUST BOM_GUST_PER REUNION_GUST REUNION_GUST_PER USA_SEAHGT USA_SEARAD_NE USA_SEARAD_SE USA_SEARAD_SW USA_SEARAD_NW STORM_SPEED STORM_DIR
1942213N22090 1942 32 NI BB NOT_NAMED 1942-08-01 00:00:00 TS 21.6000 90.2000 main 22 22 _________O____ -1 21.6000 90.2000 TC 30 3 258
1942213N22090 1942 32 NI BB NOT_NAMED 1942-08-01 03:00:00 TS 21.5667 90.0300 main 24 24 _________PO___ -1 21.5501 89.9450 TC 30 21.6000 90.2000 1 4 258
1942213N22090 1942 32 NI BB NOT_NAMED 1942-08-01 06:00:00 TS 21.5227 89.8025 main 33 30 _________OP___ -1 21.5000 89.7000 TC 30 21.5567 89.9562 1 4 258
1942213N22090 1942 32 NI BB NOT_NAMED 1942-08-01 09:00:00 TS 21.4759 89.5700 main 30 22 _________PP___ -1 21.4499 89.4650 TC 30 21.5105 89.7099 1 5 258
1942213N22090 1942 32 NI BB NOT_NAMED 1942-08-01 12:00:00 TS 21.4296 89.3293 main 30 22 _________OP___ -1 21.4000 89.2000 TC 30 21.4591 89.4587 1 5 259
1942213N22090 1942 32 NI BB NOT_NAMED 1942-08-01 15:00:00 TS 21.3788 89.0288 main 22 22 _________PO___ -1 21.3576 88.8575 TC 30 21.4000 89.2000 1 6 259
1942213N22090 1942 32 NI BB NOT_NAMED 1942-08-01 18:00:00 TS 21.3158 88.7146 main 39 33 _________OP___ -1 21.3000 88.5000 TC 30 21.3317 88.9291 1 6 255
1942213N22090 1942 32 NI BB NOT_NAMED 1942-08-01 21:00:00 TS 21.2319 88.4276 main 44 44 _________PP___ -1 21.2072 88.2226 TC 30 21.2566 88.6326 1 6 253
1942213N22090 1942 32 NI BB NOT_NAMED 1942-08-02 00:00:00 TS 21.1392 88.0974 main 56 56 _________OP___ -1 21.1000 87.9000 TC 30 21.1783 88.2948 1 7 255
1942213N22090 1942 32 NI BB NOT_NAMED 1942-08-02 03:00:00 TS 21.0463 87.6687 main 73 30 _________PO___ -1 20.9925 87.4374 TC 30 21.1000 87.9000 1 9 258
1942213N22090 1942 32 NI BB NOT_NAMED 1942-08-02 06:00:00 TS 20.9526 87.1619 main 30 0 _________OP___ -1 20.9000 86.9000 TC 30 21.0051 87.4239 1 10 260
1942213N22090 1942 32 NI BB NOT_NAMED 1942-08-02 09:00:00 TS 20.8703 86.6221 main 0 0 _________PP___ -1 20.8275 86.3499 TC 30 20.9131 86.8942 1 10 263
1942213N22090 1942 32 NI BB NOT_NAMED 1942-08-02 12:00:00 TS 20.8197 86.0713 main 0 0 _________OP___ -1 20.8000 85.8000 TC 30 20.8394 86.3425 1 10 267
1942213N22090 1942 32 NI BB NOT_NAMED 1942-08-02 15:00:00 TS 20.8174 85.5426 main 0 0 _________PO___ -1 20.8348 85.2851 TC 30 20.8000 85.8000 1 9 272
1942213N22090 1942 32 NI BB NOT_NAMED 1942-08-02 18:00:00 TS 20.8543 85.0757 main 0 0 _________OP___ -1 20.9000 84.8000 TC 30 20.8085 85.3515 1 8 276
1942213N22090 1942 32 NI BB NOT_NAMED 1942-08-02 21:00:00 TS 20.9011 84.6488 main 0 0 _________PP___ -1 20.9494 84.3874 TC 30 20.8528 84.9101 1 9 277
1942213N22090 1942 32 NI BB NOT_NAMED 1942-08-03 00:00:00 TS 20.9604 84.1694 main 0 0 _________OP___ -1 21.0000 83.9000 TC 30 20.9207 84.4387 1 10 277
1942213N22090 1942 32 NI BB NOT_NAMED 1942-08-03 03:00:00 TS 21.0214 83.5437 main 0 0 _________PO___ -1 21.0428 83.1874 TC 30 21.0000 83.9000 1 13 275
1942213N22090 1942 32 NI BB NOT_NAMED 1942-08-03 06:00:00 TS 21.0760 82.8211 main 0 0 _________OP___ -1 21.1000 82.4000 TC 30 21.0521 83.2423 1 13 275
1942213N22090 1942 32 NI BB NOT_NAMED 1942-08-03 09:00:00 TS 21.1489 82.1045 main 0 0 _________PP___ -1 21.1846 81.6924 TC 30 21.1132 82.5166 1 14 277
1942213N22090 1942 32 NI BB NOT_NAMED 1942-08-03 12:00:00 TS 21.2463 81.3788 main 0 0 _________OP___ -1 21.3000 81.0000 TC 30 21.1925 81.7576 1 14 279
1942213N22090 1942 32 NI BB NOT_NAMED 1942-08-03 15:00:00 TS 21.3674 80.6499 main 0 0 _________PO___ -1 21.4347 80.2999 TC 30 21.3000 81.0000 1 14 281
1942213N22090 1942 32 NI BB NOT_NAMED 1942-08-03 18:00:00 TS 21.5166 79.9423 main 0 0 _________OP___ -1 21.6000 79.6000 TC 30 21.4333 80.2846 1 14 284
1942213N22090 1942 32 NI BB NOT_NAMED 1942-08-03 21:00:00 TS 21.6907 79.2347 main 0 0 _________PP___ -1 21.7848 78.8923 TC 30 21.5965 79.5772 1 14 286
1942213N22090 1942 32 NI BB NOT_NAMED 1942-08-04 00:00:00 TS 21.8932 78.5406 main 0 0 _________OP___ -1 22.0000 78.2000 TC 30 21.7865 78.8811 1 13 289
1942213N22090 1942 32 NI AS NOT_NAMED 1942-08-04 03:00:00 TS 22.1211 77.8712 main 0 0 _________PO___ -1 22.2422 77.5423 TC 30 22.0000 78.2000 1 13 291
1942213N22090 1942 32 NI AS NOT_NAMED 1942-08-04 06:00:00 TS 22.3597 77.2155 main 0 0 _________OP___ -1 22.5000 76.9000 TC 30 22.2194 77.5311 1 13 292
1942213N22090 1942 32 NI AS NOT_NAMED 1942-08-04 09:00:00 TS 22.6018 76.5595 main 0 0 _________PP___ -1 22.7423 76.2422 TC 30 22.4613 76.8767 1 13 293
1942213N22090 1942 32 NI AS NOT_NAMED 1942-08-04 12:00:00 TS 22.8613 75.9170 main 0 0 _________OP___ -1 23.0000 75.6000 TC 30 22.7226 76.2340 1 13 295
1942213N22090 1942 32 NI AS NOT_NAMED 1942-08-04 15:00:00 TS 23.1460 75.2999 main 0 0 _________PO___ -1 23.2921 74.9997 TC 30 23.0000 75.6000 1 13 297
1942213N22090 1942 32 NI AS NOT_NAMED 1942-08-04 18:00:00 TS 23.4570 74.6681 main 0 0 _________OP___ -1 23.6000 74.4000 TC 30 23.3140 74.9362 1 14 298
1942213N22090 1942 32 NI AS NOT_NAMED 1942-08-04 21:00:00 TS 23.7801 74.0021 main 0 0 _________PP___ -1 23.9227 73.7203 TC 30 23.6376 74.2839 1 13 298
1942213N22090 1942 32 NI AS NOT_NAMED 1942-08-05 00:00:00 TS 24.0712 73.3822 main 0 0 _________OP___ -1 24.2000 73.1000 TC 30 23.9423 73.6644 1 11 297
1942213N22090 1942 32 NI AS NOT_NAMED 1942-08-05 03:00:00 TS 24.2897 72.8848 main 0 0 _________PO___ -1 24.3795 72.6695 TC 30 24.2000 73.1000 1 9 293
1942213N22090 1942 32 NI AS NOT_NAMED 1942-08-05 06:00:00 TS 24.4329 72.4599 main 0 0 _________OP___ -1 24.5000 72.3000 TC 30 24.3658 72.6197 1 8 288
1942213N22090 1942 32 NI AS NOT_NAMED 1942-08-05 09:00:00 TS 24.5428 72.0262 main 0 0 _________PP___ -1 24.5999 71.8573 TC 30 24.4857 72.1952 1 8 285
1942213N22090 1942 32 NI AS NOT_NAMED 1942-08-05 12:00:00 TS 24.6439 71.5991 main 0 0 _________OP___ -1 24.7000 71.4000 TC 30 24.5879 71.7981 1 8 286
1942213N22090 1942 32 NI AS NOT_NAMED 1942-08-05 15:00:00 TS 24.7674 71.1749 main 0 0 _________PO___ -1 24.8349 70.9499 TC 30 24.7000 71.4000 1 8 290
1942213N22090 1942 32 NI AS NOT_NAMED 1942-08-05 18:00:00 TS 24.9105 70.7730 main 0 0 _________OP___ -1 25.0000 70.5000 TC 30 24.8434 70.9777 1 8 293
1942213N22090 1942 32 NI AS NOT_NAMED 1942-08-05 21:00:00 TS 25.0857 70.3395 main 0 0 _________PP___ -1 25.1928 70.0503 TC 30 25.0144 70.5322 1 9 295
1942213N22090 1942 32 NI AS NOT_NAMED 1942-08-06 00:00:00 TS 25.2688 69.9137 main 0 0 _________OP___ -1 25.4000 69.6000 TC 30 25.2031 70.0705 1 7 295
1942213N22090 1942 32 NI AS NOT_NAMED 1942-08-06 03:00:00 NR 25.4000 69.6000 main 0 __________O___ -1 TC 25.4000 69.6000 1 6 295

About IBTrACS Database

This database is a web-friendly format of International Best Track Archive for Climate Stewardship (IBTrACS), a global best track data archive curated by NOAA dating back to 1842.

Updated: 2021-10-27